sensor_id;sensor_type;location;lat;lon;timestamp;pressure;altitude;pressure_sealevel;temperature;humidity
65897;BME280;52677;50.898;10.854;2023-11-21T00:01:06;97809.50;;;4.58;100.00
65897;BME280;52677;50.898;10.854;2023-11-21T00:03:08;97804.38;;;4.56;100.00
65897;BME280;52677;50.898;10.854;2023-11-21T00:05:10;97816.81;;;4.54;100.00
65897;BME280;52677;50.898;10.854;2023-11-21T00:07:11;97817.53;;;4.50;100.00
65897;BME280;52677;50.898;10.854;2023-11-21T00:09:11;97816.03;;;4.53;100.00
65897;BME280;52677;50.898;10.854;2023-11-21T00:11:13;97821.06;;;4.51;100.00
65897;BME280;52677;50.898;10.854;2023-11-21T00:13:13;97824.06;;;4.46;100.00
65897;BME280;52677;50.898;10.854;2023-11-21T00:15:13;97809.94;;;4.44;100.00
65897;BME280;52677;50.898;10.854;2023-11-21T00:17:14;97815.41;;;4.44;100.00
65897;BME280;52677;50.898;10.854;2023-11-21T00:19:14;97815.53;;;4.47;100.00
65897;BME280;52677;50.898;10.854;2023-11-21T00:21:14;97813.66;;;4.51;100.00
65897;BME280;52677;50.898;10.854;2023-11-21T00:23:15;97806.66;;;4.54;100.00
65897;BME280;52677;50.898;10.854;2023-11-21T00:25:15;97813.75;;;4.55;100.00
65897;BME280;52677;50.898;10.854;2023-11-21T00:27:17;97816.03;;;4.53;100.00
65897;BME280;52677;50.898;10.854;2023-11-21T00:29:17;97817.19;;;4.52;100.00
65897;BME280;52677;50.898;10.854;2023-11-21T00:31:18;97809.69;;;4.49;100.00
65897;BME280;52677;50.898;10.854;2023-11-21T00:33:18;97806.94;;;4.49;100.00
65897;BME280;52677;50.898;10.854;2023-11-21T00:35:19;97803.06;;;4.50;100.00
65897;BME280;52677;50.898;10.854;2023-11-21T00:37:20;97802.94;;;4.46;100.00
65897;BME280;52677;50.898;10.854;2023-11-21T00:39:20;97807.31;;;4.47;100.00
65897;BME280;52677;50.898;10.854;2023-11-21T00:41:20;97813.09;;;4.46;100.00
65897;BME280;52677;50.898;10.854;2023-11-21T00:43:21;97811.09;;;4.43;100.00
65897;BME280;52677;50.898;10.854;2023-11-21T00:45:21;97821.59;;;4.41;100.00
65897;BME280;52677;50.898;10.854;2023-11-21T00:47:21;97821.97;;;4.39;100.00
65897;BME280;52677;50.898;10.854;2023-11-21T00:49:22;97829.03;;;4.40;100.00
65897;BME280;52677;50.898;10.854;2023-11-21T00:51:23;97831.84;;;4.44;100.00
65897;BME280;52677;50.898;10.854;2023-11-21T00:53:23;97835.13;;;4.49;100.00
65897;BME280;52677;50.898;10.854;2023-11-21T00:55:23;97832.94;;;4.55;100.00
65897;BME280;52677;50.898;10.854;2023-11-21T00:57:26;97836.09;;;4.57;100.00
65897;BME280;52677;50.898;10.854;2023-11-21T00:59:26;97829.91;;;4.60;100.00
65897;BME280;52677;50.898;10.854;2023-11-21T01:01:27;97831.84;;;4.60;100.00
65897;BME280;52677;50.898;10.854;2023-11-21T01:03:27;97836.97;;;4.61;100.00
65897;BME280;52677;50.898;10.854;2023-11-21T01:05:27;97831.84;;;4.60;100.00
65897;BME280;52677;50.898;10.854;2023-11-21T01:07:28;97826.72;;;4.58;100.00
65897;BME280;52677;50.898;10.854;2023-11-21T01:09:28;97839.28;;;4.59;100.00
65897;BME280;52677;50.898;10.854;2023-11-21T01:11:28;97829.91;;;4.60;100.00
65897;BME280;52677;50.898;10.854;2023-11-21T01:13:29;97830.00;;;4.64;100.00
65897;BME280;52677;50.898;10.854;2023-11-21T01:15:29;97824.53;;;4.64;100.00
65897;BME280;52677;50.898;10.854;2023-11-21T01:17:29;97833.97;;;4.66;100.00
65897;BME280;52677;50.898;10.854;2023-11-21T01:19:30;97854.03;;;4.70;100.00
65897;BME280;52677;50.898;10.854;2023-11-21T01:21:30;97844.22;;;4.69;100.00
65897;BME280;52677;50.898;10.854;2023-11-21T01:23:31;97848.91;;;4.69;100.00
65897;BME280;52677;50.898;10.854;2023-11-21T01:25:31;97854.81;;;4.71;100.00
65897;BME280;52677;50.898;10.854;2023-11-21T01:27:32;97854.13;;;4.74;100.00
65897;BME280;52677;50.898;10.854;2023-11-21T01:29:32;97853.84;;;4.79;100.00
65897;BME280;52677;50.898;10.854;2023-11-21T01:31:33;97853.16;;;4.82;100.00
65897;BME280;52677;50.898;10.854;2023-11-21T01:33:33;97855.59;;;4.87;100.00
65897;BME280;52677;50.898;10.854;2023-11-21T01:35:33;97857.22;;;4.88;100.00
65897;BME280;52677;50.898;10.854;2023-11-21T01:37:34;97854.91;;;4.90;100.00
65897;BME280;52677;50.898;10.854;2023-11-21T01:39:34;97865.44;;;4.88;100.00
65897;BME280;52677;50.898;10.854;2023-11-21T01:41:35;97867.72;;;4.86;100.00
65897;BME280;52677;50.898;10.854;2023-11-21T01:43:35;97865.25;;;4.81;100.00
65897;BME280;52677;50.898;10.854;2023-11-21T01:45:35;97869.06;;;4.76;100.00
65897;BME280;52677;50.898;10.854;2023-11-21T01:47:36;97867.03;;;4.73;100.00
65897;BME280;52677;50.898;10.854;2023-11-21T01:49:37;97869.78;;;4.73;100.00
65897;BME280;52677;50.898;10.854;2023-11-21T01:51:38;97862.34;;;4.74;100.00
65897;BME280;52677;50.898;10.854;2023-11-21T01:53:39;97868.19;;;4.72;100.00
65897;BME280;52677;50.898;10.854;2023-11-21T01:55:40;97859.19;;;4.72;100.00
65897;BME280;52677;50.898;10.854;2023-11-21T01:57:42;97866.50;;;4.68;100.00
65897;BME280;52677;50.898;10.854;2023-11-21T01:59:44;97873.91;;;4.67;100.00
65897;BME280;52677;50.898;10.854;2023-11-21T02:01:44;97868.38;;;4.64;100.00
65897;BME280;52677;50.898;10.854;2023-11-21T02:03:46;97864.28;;;4.58;100.00
65897;BME280;52677;50.898;10.854;2023-11-21T02:05:47;97863.38;;;4.54;100.00
65897;BME280;52677;50.898;10.854;2023-11-21T02:07:47;97869.66;;;4.54;100.00
65897;BME280;52677;50.898;10.854;2023-11-21T02:09:48;97882.56;;;4.54;100.00
65897;BME280;52677;50.898;10.854;2023-11-21T02:11:48;97878.59;;;4.51;100.00
65897;BME280;52677;50.898;10.854;2023-11-21T02:13:49;97875.84;;;4.51;100.00
65897;BME280;52677;50.898;10.854;2023-11-21T02:15:50;97878.97;;;4.49;100.00
65897;BME280;52677;50.898;10.854;2023-11-21T02:17:52;97876.91;;;4.46;100.00
65897;BME280;52677;50.898;10.854;2023-11-21T02:19:53;97882.75;;;4.45;100.00
65897;BME280;52677;50.898;10.854;2023-11-21T02:21:55;97879.56;;;4.43;100.00
65897;BME280;52677;50.898;10.854;2023-11-21T02:23:58;97874.09;;;4.43;100.00
65897;BME280;52677;50.898;10.854;2023-11-21T02:25:58;97875.25;;;4.42;100.00
65897;BME280;52677;50.898;10.854;2023-11-21T02:28:01;97879.13;;;4.41;100.00
65897;BME280;52677;50.898;10.854;2023-11-21T02:30:01;97871.69;;;4.41;100.00
65897;BME280;52677;50.898;10.854;2023-11-21T02:32:04;97872.84;;;4.40;100.00
65897;BME280;52677;50.898;10.854;2023-11-21T02:34:05;97873.53;;;4.37;100.00
65897;BME280;52677;50.898;10.854;2023-11-21T02:36:06;97877.44;;;4.36;100.00
65897;BME280;52677;50.898;10.854;2023-11-21T02:38:06;97867.75;;;4.39;100.00
65897;BME280;52677;50.898;10.854;2023-11-21T02:40:09;97882.66;;;4.41;100.00
65897;BME280;52677;50.898;10.854;2023-11-21T02:42:09;97877.19;;;4.41;100.00
65897;BME280;52677;50.898;10.854;2023-11-21T02:44:10;97874.34;;;4.38;100.00
65897;BME280;52677;50.898;10.854;2023-11-21T02:46:10;97870.38;;;4.35;100.00
65897;BME280;52677;50.898;10.854;2023-11-21T02:48:11;97870.72;;;4.34;100.00
65897;BME280;52677;50.898;10.854;2023-11-21T02:50:11;97865.97;;;4.31;100.00
65897;BME280;52677;50.898;10.854;2023-11-21T02:52:12;97877.34;;;4.33;100.00
65897;BME280;52677;50.898;10.854;2023-11-21T02:54:12;97870.38;;;4.35;100.00
65897;BME280;52677;50.898;10.854;2023-11-21T02:56:13;97872.38;;;4.38;100.00
65897;BME280;52677;50.898;10.854;2023-11-21T02:58:13;97872.06;;;4.40;100.00
65897;BME280;52677;50.898;10.854;2023-11-21T03:00:13;97873.28;;;4.42;100.00
65897;BME280;52677;50.898;10.854;2023-11-21T03:02:15;97872.06;;;4.40;100.00
65897;BME280;52677;50.898;10.854;2023-11-21T03:04:16;97872.84;;;4.40;100.00
65897;BME280;52677;50.898;10.854;2023-11-21T03:06:18;97871.28;;;4.39;100.00
65897;BME280;52677;50.898;10.854;2023-11-21T03:08:19;97869.31;;;4.40;100.00
65897;BME280;52677;50.898;10.854;2023-11-21T03:10:19;97875.94;;;4.39;100.00
65897;BME280;52677;50.898;10.854;2023-11-21T03:12:20;97868.41;;;4.36;100.00
65897;BME280;52677;50.898;10.854;2023-11-21T03:14:20;97873.81;;;4.32;100.00
65897;BME280;52677;50.898;10.854;2023-11-21T03:16:20;97871.31;;;4.27;100.00
65897;BME280;52677;50.898;10.854;2023-11-21T03:18:21;97879.91;;;4.26;100.00
65897;BME280;52677;50.898;10.854;2023-11-21T03:20:24;97875.94;;;4.23;100.00
65897;BME280;52677;50.898;10.854;2023-11-21T03:22:25;97877.06;;;4.22;100.00
65897;BME280;52677;50.898;10.854;2023-11-21T03:24:26;97877.06;;;4.22;100.00
65897;BME280;52677;50.898;10.854;2023-11-21T03:26:26;97879.34;;;4.20;100.00
65897;BME280;52677;50.898;10.854;2023-11-21T03:28:27;97872.56;;;4.14;100.00
65897;BME280;52677;50.898;10.854;2023-11-21T03:30:28;97881.44;;;4.11;100.00
65897;BME280;52677;50.898;10.854;2023-11-21T03:32:28;97874.38;;;4.10;100.00
65897;BME280;52677;50.898;10.854;2023-11-21T03:34:28;97890.81;;;4.10;100.00
65897;BME280;52677;50.898;10.854;2023-11-21T03:36:29;97890.38;;;4.08;100.00
65897;BME280;52677;50.898;10.854;2023-11-21T03:38:29;97899.75;;;4.07;100.00
65897;BME280;52677;50.898;10.854;2023-11-21T03:40:30;97902.78;;;4.05;100.00
65897;BME280;52677;50.898;10.854;2023-11-21T03:42:31;97903.63;;;4.06;100.00
65897;BME280;52677;50.898;10.854;2023-11-21T03:44:32;97904.84;;;4.08;100.00
65897;BME280;52677;50.898;10.854;2023-11-21T03:46:32;97902.13;;;4.08;100.00
65897;BME280;52677;50.898;10.854;2023-11-21T03:48:32;97900.97;;;4.09;100.00
65897;BME280;52677;50.898;10.854;2023-11-21T03:50:33;97897.69;;;4.04;100.00
65897;BME280;52677;50.898;10.854;2023-11-21T03:52:33;97903.50;;;4.02;100.00
65897;BME280;52677;50.898;10.854;2023-11-21T03:54:33;97904.81;;;3.92;100.00
65897;BME280;52677;50.898;10.854;2023-11-21T03:56:34;97910.50;;;3.87;100.00
65897;BME280;52677;50.898;10.854;2023-11-21T03:58:34;97910.31;;;3.80;100.00
65897;BME280;52677;50.898;10.854;2023-11-21T04:00:35;97911.00;;;3.77;100.00
65897;BME280;52677;50.898;10.854;2023-11-21T04:02:35;97911.81;;;3.78;100.00
65897;BME280;52677;50.898;10.854;2023-11-21T04:04:36;97912.88;;;3.73;100.00
65897;BME280;52677;50.898;10.854;2023-11-21T04:06:36;97919.81;;;3.71;100.00
65897;BME280;52677;50.898;10.854;2023-11-21T04:08:38;97921.22;;;3.64;100.00
65897;BME280;52677;50.898;10.854;2023-11-21T04:10:38;97915.53;;;3.57;100.00
65897;BME280;52677;50.898;10.854;2023-11-21T04:12:39;97926.25;;;3.50;100.00
65897;BME280;52677;50.898;10.854;2023-11-21T04:14:40;97925.22;;;3.43;100.00
65897;BME280;52677;50.898;10.854;2023-11-21T04:16:40;97926.25;;;3.38;100.00
65897;BME280;52677;50.898;10.854;2023-11-21T04:18:41;97929.91;;;3.30;100.00
65897;BME280;52677;50.898;10.854;2023-11-21T04:20:41;97936.06;;;3.27;100.00
65897;BME280;52677;50.898;10.854;2023-11-21T04:22:44;97932.09;;;3.24;100.00
65897;BME280;52677;50.898;10.854;2023-11-21T04:24:44;97927.28;;;3.21;100.00
65897;BME280;52677;50.898;10.854;2023-11-21T04:26:45;97930.81;;;3.22;100.00
65897;BME280;52677;50.898;10.854;2023-11-21T04:28:45;97924.56;;;3.21;100.00
65897;BME280;52677;50.898;10.854;2023-11-21T04:30:45;97924.91;;;3.20;100.00
65897;BME280;52677;50.898;10.854;2023-11-21T04:32:46;97933.00;;;3.16;100.00
65897;BME280;52677;50.898;10.854;2023-11-21T04:34:46;97928.22;;;3.13;100.00
65897;BME280;52677;50.898;10.854;2023-11-21T04:36:46;97944.84;;;3.08;100.00
65897;BME280;52677;50.898;10.854;2023-11-21T04:38:47;97933.34;;;3.02;100.00
65897;BME280;52677;50.898;10.854;2023-11-21T04:40:47;97933.69;;;3.01;100.00
65897;BME280;52677;50.898;10.854;2023-11-21T04:42:47;97933.09;;;2.95;100.00
65897;BME280;52677;50.898;10.854;2023-11-21T04:44:48;97944.72;;;2.92;100.00
65897;BME280;52677;50.898;10.854;2023-11-21T04:46:49;97943.00;;;2.88;100.00
65897;BME280;52677;50.898;10.854;2023-11-21T04:48:49;97940.84;;;2.81;100.00
65897;BME280;52677;50.898;10.854;2023-11-21T04:50:49;97943.47;;;2.77;100.00
65897;BME280;52677;50.898;10.854;2023-11-21T04:52:50;97943.34;;;2.74;100.00
65897;BME280;52677;50.898;10.854;2023-11-21T04:54:52;97944.47;;;2.73;100.00
65897;BME280;52677;50.898;10.854;2023-11-21T04:56:54;97949.72;;;2.66;100.00
65897;BME280;52677;50.898;10.854;2023-11-21T04:58:55;97954.13;;;2.58;100.00
65897;BME280;52677;50.898;10.854;2023-11-21T05:00:55;97953.44;;;2.49;100.00
65897;BME280;52677;50.898;10.854;2023-11-21T05:02:55;97958.97;;;2.40;100.00
65897;BME280;52677;50.898;10.854;2023-11-21T05:04:56;97956.47;;;2.35;100.00
65897;BME280;52677;50.898;10.854;2023-11-21T05:06:57;97951.53;;;2.29;100.00
65897;BME280;52677;50.898;10.854;2023-11-21T05:08:57;97953.56;;;2.19;100.00
65897;BME280;52677;50.898;10.854;2023-11-21T05:10:58;97960.34;;;2.13;100.00
65897;BME280;52677;50.898;10.854;2023-11-21T05:12:59;97960.88;;;2.07;100.00
65897;BME280;52677;50.898;10.854;2023-11-21T05:14:59;97959.19;;;2.02;100.00
65897;BME280;52677;50.898;10.854;2023-11-21T05:17:00;97956.19;;;1.95;100.00
65897;BME280;52677;50.898;10.854;2023-11-21T05:19:01;97971.63;;;1.91;100.00
65897;BME280;52677;50.898;10.854;2023-11-21T05:21:01;97972.16;;;1.84;100.00
65897;BME280;52677;50.898;10.854;2023-11-21T05:23:02;97969.84;;;1.74;100.00
65897;BME280;52677;50.898;10.854;2023-11-21T05:25:03;97963.44;;;1.70;100.00
65897;BME280;52677;50.898;10.854;2023-11-21T05:27:08;97963.50;;;1.61;100.00
65897;BME280;52677;50.898;10.854;2023-11-21T05:29:09;97963.97;;;1.63;100.00
65897;BME280;52677;50.898;10.854;2023-11-21T05:31:10;97969.28;;;1.60;100.00
65897;BME280;52677;50.898;10.854;2023-11-21T05:33:11;97964.28;;;1.62;100.00
65897;BME280;52677;50.898;10.854;2023-11-21T05:35:11;97958.84;;;1.62;100.00
65897;BME280;52677;50.898;10.854;2023-11-21T05:37:15;97969.75;;;1.62;100.00
65897;BME280;52677;50.898;10.854;2023-11-21T05:39:17;97969.63;;;1.58;100.00
65897;BME280;52677;50.898;10.854;2023-11-21T05:41:18;97969.47;;;1.55;100.00
65897;BME280;52677;50.898;10.854;2023-11-21T05:43:19;97966.28;;;1.53;100.00
65897;BME280;52677;50.898;10.854;2023-11-21T05:45:19;97972.47;;;1.62;100.00
65897;BME280;52677;50.898;10.854;2023-11-21T05:47:19;97983.38;;;1.62;100.00
65897;BME280;52677;50.898;10.854;2023-11-21T05:49:21;97988.84;;;1.62;100.00
65897;BME280;52677;50.898;10.854;2023-11-21T05:51:22;97986.78;;;1.59;100.00
65897;BME280;52677;50.898;10.854;2023-11-21T05:53:22;97987.25;;;1.61;100.00
65897;BME280;52677;50.898;10.854;2023-11-21T05:55:23;97988.03;;;1.61;100.00
65897;BME280;52677;50.898;10.854;2023-11-21T05:57:25;97984.78;;;1.68;100.00
65897;BME280;52677;50.898;10.854;2023-11-21T05:59:26;97994.75;;;1.64;100.00
65897;BME280;52677;50.898;10.854;2023-11-21T06:01:26;97996.28;;;1.53;100.00
65897;BME280;52677;50.898;10.854;2023-11-21T06:03:29;97998.59;;;1.42;100.00
65897;BME280;52677;50.898;10.854;2023-11-21T06:05:29;98000.56;;;1.33;100.00
65897;BME280;52677;50.898;10.854;2023-11-21T06:07:32;98006.19;;;1.28;100.00
65897;BME280;52677;50.898;10.854;2023-11-21T06:09:32;97997.06;;;1.24;100.00
65897;BME280;52677;50.898;10.854;2023-11-21T06:11:32;98017.28;;;1.23;100.00
65897;BME280;52677;50.898;10.854;2023-11-21T06:13:33;98016.63;;;1.26;100.00
65897;BME280;52677;50.898;10.854;2023-11-21T06:15:33;98015.63;;;1.30;100.00
65897;BME280;52677;50.898;10.854;2023-11-21T06:17:35;98025.84;;;1.42;100.00
65897;BME280;52677;50.898;10.854;2023-11-21T06:19:39;98029.63;;;1.58;100.00
65897;BME280;52677;50.898;10.854;2023-11-21T06:21:40;98023.91;;;1.72;100.00
65897;BME280;52677;50.898;10.854;2023-11-21T06:23:40;98040.56;;;2.00;100.00
65897;BME280;52677;50.898;10.854;2023-11-21T06:25:41;98033.69;;;2.15;100.00
65897;BME280;52677;50.898;10.854;2023-11-21T06:27:43;98033.69;;;2.36;100.00
65897;BME280;52677;50.898;10.854;2023-11-21T06:29:44;98042.59;;;2.45;100.00
65897;BME280;52677;50.898;10.854;2023-11-21T06:31:44;98051.06;;;2.52;100.00
65897;BME280;52677;50.898;10.854;2023-11-21T06:33:46;98056.31;;;2.57;100.00
65897;BME280;52677;50.898;10.854;2023-11-21T06:35:46;98058.19;;;2.65;100.00
65897;BME280;52677;50.898;10.854;2023-11-21T06:37:47;98051.34;;;2.71;100.00
65897;BME280;52677;50.898;10.854;2023-11-21T06:39:48;98057.28;;;2.73;100.00
65897;BME280;52677;50.898;10.854;2023-11-21T06:41:51;98060.59;;;2.79;100.00
65897;BME280;52677;50.898;10.854;2023-11-21T06:43:51;98059.78;;;2.78;100.00
65897;BME280;52677;50.898;10.854;2023-11-21T06:45:53;98057.16;;;2.70;100.00
65897;BME280;52677;50.898;10.854;2023-11-21T06:47:54;98053.97;;;2.68;100.00
65897;BME280;52677;50.898;10.854;2023-11-21T06:49:54;98050.97;;;2.61;100.00
65897;BME280;52677;50.898;10.854;2023-11-21T06:51:55;98053.59;;;2.57;100.00
65897;BME280;52677;50.898;10.854;2023-11-21T06:53:55;98046.41;;;2.52;100.00
65897;BME280;52677;50.898;10.854;2023-11-21T06:55:56;98053.34;;;2.50;100.00
65897;BME280;52677;50.898;10.854;2023-11-21T06:57:56;98058.31;;;2.48;100.00
65897;BME280;52677;50.898;10.854;2023-11-21T06:59:58;98059.13;;;2.48;100.00
65897;BME280;52677;50.898;10.854;2023-11-21T07:01:58;98062.97;;;2.47;100.00
65897;BME280;52677;50.898;10.854;2023-11-21T07:03:59;98064.59;;;2.48;100.00
65897;BME280;52677;50.898;10.854;2023-11-21T07:05:59;98071.31;;;2.51;100.00
65897;BME280;52677;50.898;10.854;2023-11-21T07:07:59;98075.44;;;2.57;100.00
65897;BME280;52677;50.898;10.854;2023-11-21T07:10:04;98079.53;;;2.63;100.00
65897;BME280;52677;50.898;10.854;2023-11-21T07:12:06;98080.47;;;2.67;100.00
65897;BME280;52677;50.898;10.854;2023-11-21T07:14:07;98085.72;;;2.72;100.00
65897;BME280;52677;50.898;10.854;2023-11-21T07:16:09;98089.38;;;2.76;100.00
65897;BME280;52677;50.898;10.854;2023-11-21T07:18:10;98082.91;;;2.81;100.00
65897;BME280;52677;50.898;10.854;2023-11-21T07:20:11;98088.50;;;2.85;100.00
65897;BME280;52677;50.898;10.854;2023-11-21T07:22:12;98088.97;;;2.87;100.00
65897;BME280;52677;50.898;10.854;2023-11-21T07:24:14;98087.47;;;2.89;100.00
65897;BME280;52677;50.898;10.854;2023-11-21T07:26:14;98083.75;;;2.94;100.00
65897;BME280;52677;50.898;10.854;2023-11-21T07:28:14;98091.25;;;2.97;100.00
65897;BME280;52677;50.898;10.854;2023-11-21T07:30:15;98091.75;;;2.99;100.00
65897;BME280;52677;50.898;10.854;2023-11-21T07:32:16;98097.78;;;3.04;100.00
65897;BME280;52677;50.898;10.854;2023-11-21T07:34:16;98100.31;;;3.09;100.00
65897;BME280;52677;50.898;10.854;2023-11-21T07:36:17;98104.28;;;3.12;100.00
65897;BME280;52677;50.898;10.854;2023-11-21T07:38:23;98104.63;;;3.10;100.00
65897;BME280;52677;50.898;10.854;2023-11-21T07:40:23;98111.03;;;3.15;100.00
65897;BME280;52677;50.898;10.854;2023-11-21T07:42:24;98112.63;;;3.16;100.00
65897;BME280;52677;50.898;10.854;2023-11-21T07:44:26;98110.47;;;3.21;100.00
65897;BME280;52677;50.898;10.854;2023-11-21T07:46:27;98119.59;;;3.25;100.00
65897;BME280;52677;50.898;10.854;2023-11-21T07:48:27;98124.84;;;3.30;100.00
65897;BME280;52677;50.898;10.854;2023-11-21T07:50:27;98115.97;;;3.33;100.00
65897;BME280;52677;50.898;10.854;2023-11-21T07:52:28;98120.53;;;3.42;100.00
65897;BME280;52677;50.898;10.854;2023-11-21T07:54:28;98127.72;;;3.46;100.00
65897;BME280;52677;50.898;10.854;2023-11-21T07:56:28;98128.66;;;3.62;100.00
65897;BME280;52677;50.898;10.854;2023-11-21T07:58:29;98129.69;;;3.70;100.00
65897;BME280;52677;50.898;10.854;2023-11-21T08:00:29;98136.44;;;3.73;100.00
65897;BME280;52677;50.898;10.854;2023-11-21T08:02:31;98135.38;;;3.77;100.00
65897;BME280;52677;50.898;10.854;2023-11-21T08:04:31;98151.13;;;3.80;100.00
65897;BME280;52677;50.898;10.854;2023-11-21T08:06:32;98136.63;;;3.80;100.00
65897;BME280;52677;50.898;10.854;2023-11-21T08:08:33;98139.72;;;3.78;100.00
65897;BME280;52677;50.898;10.854;2023-11-21T08:10:33;98140.50;;;3.79;100.00
65897;BME280;52677;50.898;10.854;2023-11-21T08:12:33;98145.19;;;3.78;100.00
65897;BME280;52677;50.898;10.854;2023-11-21T08:14:34;98140.66;;;3.82;100.00
65897;BME280;52677;50.898;10.854;2023-11-21T08:16:40;98146.13;;;3.82;100.00
65897;BME280;52677;50.898;10.854;2023-11-21T08:18:41;98137.91;;;3.82;100.00
65897;BME280;52677;50.898;10.854;2023-11-21T08:20:41;98137.22;;;3.85;100.00
65897;BME280;52677;50.898;10.854;2023-11-21T08:22:43;98145.31;;;3.94;100.00
65897;BME280;52677;50.898;10.854;2023-11-21T08:24:44;98136.88;;;3.99;100.00
65897;BME280;52677;50.898;10.854;2023-11-21T08:26:44;98139.94;;;4.10;100.00
65897;BME280;52677;50.898;10.854;2023-11-21T08:28:45;98149.09;;;4.14;100.00
65897;BME280;52677;50.898;10.854;2023-11-21T08:30:45;98150.69;;;4.15;100.00
65897;BME280;52677;50.898;10.854;2023-11-21T08:32:45;98144.97;;;4.20;100.00
65897;BME280;52677;50.898;10.854;2023-11-21T08:34:46;98150.91;;;4.22;100.00
65897;BME280;52677;50.898;10.854;2023-11-21T08:36:50;98149.75;;;4.23;100.00
65897;BME280;52677;50.898;10.854;2023-11-21T08:38:51;98151.81;;;4.26;100.00
65897;BME280;52677;50.898;10.854;2023-11-21T08:40:54;98151.91;;;4.30;100.00
65897;BME280;52677;50.898;10.854;2023-11-21T08:42:55;98161.13;;;4.37;100.00
65897;BME280;52677;50.898;10.854;2023-11-21T08:44:58;98163.56;;;4.39;100.00
65897;BME280;52677;50.898;10.854;2023-11-21T08:46:58;98160.81;;;4.39;100.00
65897;BME280;52677;50.898;10.854;2023-11-21T08:49:01;98162.41;;;4.40;100.00
65897;BME280;52677;50.898;10.854;2023-11-21T08:51:01;98169.13;;;4.42;100.00
65897;BME280;52677;50.898;10.854;2023-11-21T08:53:02;98168.78;;;4.44;100.00
65897;BME280;52677;50.898;10.854;2023-11-21T08:55:02;98166.16;;;4.47;100.00
65897;BME280;52677;50.898;10.854;2023-11-21T08:57:07;98163.44;;;4.47;100.00
65897;BME280;52677;50.898;10.854;2023-11-21T08:59:09;98164.66;;;4.50;100.00
65897;BME280;52677;50.898;10.854;2023-11-21T09:01:09;98170.72;;;4.56;100.00
65897;BME280;52677;50.898;10.854;2023-11-21T09:03:09;98177.19;;;4.63;100.00
65897;BME280;52677;50.898;10.854;2023-11-21T09:05:10;98185.06;;;4.65;100.00
65897;BME280;52677;50.898;10.854;2023-11-21T09:07:11;98177.75;;;4.69;100.00
65897;BME280;52677;50.898;10.854;2023-11-21T09:09:11;98177.16;;;4.75;100.00
65897;BME280;52677;50.898;10.854;2023-11-21T09:11:12;98184.81;;;4.82;100.00
65897;BME280;52677;50.898;10.854;2023-11-21T09:13:12;98182.50;;;4.84;100.00
65897;BME280;52677;50.898;10.854;2023-11-21T09:15:13;98188.44;;;4.86;100.00
65897;BME280;52677;50.898;10.854;2023-11-21T09:17:14;98199.59;;;4.93;100.00
65897;BME280;52677;50.898;10.854;2023-11-21T09:19:15;98195.72;;;4.94;100.00
65897;BME280;52677;50.898;10.854;2023-11-21T09:21:15;98193.09;;;4.98;100.00
65897;BME280;52677;50.898;10.854;2023-11-21T09:23:16;98204.16;;;5.01;100.00
65897;BME280;52677;50.898;10.854;2023-11-21T09:25:16;98212.81;;;5.03;100.00
65897;BME280;52677;50.898;10.854;2023-11-21T09:27:16;98207.25;;;5.00;100.00
65897;BME280;52677;50.898;10.854;2023-11-21T09:29:17;98211.22;;;5.02;100.00
65897;BME280;52677;50.898;10.854;2023-11-21T09:31:18;98212.50;;;5.05;100.00
65897;BME280;52677;50.898;10.854;2023-11-21T09:33:22;98219.56;;;5.06;100.00
65897;BME280;52677;50.898;10.854;2023-11-21T09:35:25;98218.31;;;5.03;100.00
65897;BME280;52677;50.898;10.854;2023-11-21T09:37:25;98205.88;;;5.06;100.00
65897;BME280;52677;50.898;10.854;2023-11-21T09:39:27;98218.06;;;5.08;100.00
65897;BME280;52677;50.898;10.854;2023-11-21T09:41:40;98216.47;;;5.07;100.00
65897;BME280;52677;50.898;10.854;2023-11-21T09:43:46;98219.78;;;5.13;100.00
65897;BME280;52677;50.898;10.854;2023-11-21T09:45:54;98224.19;;;5.18;100.00
65897;BME280;52677;50.898;10.854;2023-11-21T09:47:55;98225.13;;;5.22;100.00
65897;BME280;52677;50.898;10.854;2023-11-21T09:49:56;98224.75;;;5.23;100.00
65897;BME280;52677;50.898;10.854;2023-11-21T09:52:01;98228.03;;;5.29;100.00
65897;BME280;52677;50.898;10.854;2023-11-21T09:54:03;98234.53;;;5.36;100.00
65897;BME280;52677;50.898;10.854;2023-11-21T09:56:09;98240.13;;;5.40;100.00
65897;BME280;52677;50.898;10.854;2023-11-21T09:58:10;98221.13;;;5.47;100.00
65897;BME280;52677;50.898;10.854;2023-11-21T10:00:12;98231.81;;;5.52;100.00
65897;BME280;52677;50.898;10.854;2023-11-21T10:02:16;98235.47;;;5.56;100.00
65897;BME280;52677;50.898;10.854;2023-11-21T10:04:18;98234.78;;;5.59;100.00
65897;BME280;52677;50.898;10.854;2023-11-21T10:06:20;98243.19;;;5.67;100.00
65897;BME280;52677;50.898;10.854;2023-11-21T10:08:22;98235.41;;;5.69;100.00
65897;BME280;52677;50.898;10.854;2023-11-21T10:10:24;98233.63;;;5.60;100.00
65897;BME280;52677;50.898;10.854;2023-11-21T10:12:26;98231.22;;;5.59;100.00
65897;BME280;52677;50.898;10.854;2023-11-21T10:14:29;98229.28;;;5.59;100.00
65897;BME280;52677;50.898;10.854;2023-11-21T10:16:30;98236.81;;;5.62;100.00
65897;BME280;52677;50.898;10.854;2023-11-21T10:18:32;98229.72;;;5.61;100.00
65897;BME280;52677;50.898;10.854;2023-11-21T10:20:34;98236.13;;;5.66;100.00
65897;BME280;52677;50.898;10.854;2023-11-21T10:22:34;98233.09;;;5.71;100.00
65897;BME280;52677;50.898;10.854;2023-11-21T10:24:35;98234.72;;;5.72;100.00
65897;BME280;52677;50.898;10.854;2023-11-21T10:26:37;98228.06;;;5.73;100.00
65897;BME280;52677;50.898;10.854;2023-11-21T10:28:37;98226.91;;;5.74;100.00
65897;BME280;52677;50.898;10.854;2023-11-21T10:30:39;98231.63;;;5.73;100.00
65897;BME280;52677;50.898;10.854;2023-11-21T10:32:40;98234.72;;;5.72;100.00